Time;durP1;ratioP1;P1;durP2;ratioP2;P2;SDS_P1;SDS_P2;PMS_P1;PMS_P2;Temp;Humidity;BMP_temperature;BMP_pressure;BME280_temperature;BME280_humidity;BME280_pressure;Samples;Min_cycle;Max_cycle;Signal;HPM_P1;HPM_P2
2021/01/04 00:02:26;;;;;;;74.90;33.23;;;;;;;2.80;93.57;100210.01;1703004;82;21217;-66
2021/01/04 00:05:33;;;;;;;74.95;32.40;;;;;;;2.83;93.74;100200.67;1710177;82;21168;-65
2021/01/04 00:08:22;;;;;;;69.25;31.97;;;;;;;2.88;93.56;100197.75;1684679;82;21237;-64
2021/01/04 00:11:20;;;;;;;70.78;33.25;;;;;;;2.86;93.65;100198.33;1702957;82;21638;-67
2021/01/04 00:14:29;;;;;;;70.72;32.83;;;;;;;2.94;93.45;100197.33;1702858;82;21247;-66
2021/01/04 00:17:12;;;;;;;76.30;32.70;;;;;;;3.01;93.26;100193.81;1706419;82;21240;-66
2021/01/04 00:20:29;;;;;;;70.03;34.33;;;;;;;2.99;93.02;100199.62;1703992;82;21661;-66
2021/01/04 00:23:27;;;;;;;74.22;32.60;;;;;;;2.97;93.15;100196.30;1692492;82;21721;-68
2021/01/04 00:26:00;;;;;;;73.35;32.35;;;;;;;2.92;93.34;100198.36;1705302;82;21318;-66
2021/01/04 00:28:29;;;;;;;72.95;33.18;;;;;;;2.90;93.56;100198.95;1706271;82;21664;-66
2021/01/04 00:31:12;;;;;;;69.70;33.18;;;;;;;2.82;93.93;100196.38;1704724;82;21178;-66
2021/01/04 00:33:54;;;;;;;70.42;33.15;;;;;;;2.85;93.89;100196.17;1704570;82;21200;-66
2021/01/04 00:36:30;;;;;;;69.90;32.60;;;;;;;2.82;93.88;100188.56;1705105;83;21395;-67
2021/01/04 00:39:14;;;;;;;64.62;31.17;;;;;;;2.91;93.63;100188.89;1705446;82;21141;-66
2021/01/04 00:41:56;;;;;;;68.92;31.52;;;;;;;2.96;93.37;100186.78;1697461;82;21601;-64
2021/01/04 00:44:40;;;;;;;66.30;31.55;;;;;;;2.96;93.34;100180.27;1705175;82;21211;-64
2021/01/04 00:47:29;;;;;;;62.75;33.08;;;;;;;2.92;93.52;100182.71;1705240;82;21163;-64
2021/01/04 00:50:01;;;;;;;65.55;30.30;;;;;;;2.93;93.68;100183.08;1705250;82;21145;-64
2021/01/04 00:52:47;;;;;;;72.67;33.83;;;;;;;2.94;93.48;100182.16;1700674;82;21172;-65
2021/01/04 00:55:27;;;;;;;69.10;32.08;;;;;;;2.91;93.84;100187.58;1696203;82;21215;-64
2021/01/04 00:58:20;;;;;;;68.60;32.20;;;;;;;2.88;94.07;100197.27;1704613;82;21252;-64
2021/01/04 01:00:58;;;;;;;65.85;31.57;;;;;;;2.99;94.03;100198.31;1704617;83;21276;-64
2021/01/04 01:03:39;;;;;;;;;;;;;;;3.14;93.36;100205.08;1705680;83;21263;-63
2021/01/04 01:06:28;;;;;;;66.70;30.20;;;;;;;3.22;93.07;100203.23;1705864;83;20667;-64
2021/01/04 01:08:55;;;;;;;64.60;28.25;;;;;;;3.20;92.76;100192.91;1705809;83;21220;-65
2021/01/04 01:11:51;;;;;;;64.20;28.90;;;;;;;3.20;92.65;100189.44;1675404;83;22100;-65
2021/01/04 01:14:43;;;;;;;68.85;31.02;;;;;;;3.21;92.51;100190.64;1704920;83;21200;-63
2021/01/04 01:17:39;;;;;;;67.47;31.02;;;;;;;3.20;92.55;100193.36;1703712;83;21314;-63
2021/01/04 01:20:07;;;;;;;59.75;29.42;;;;;;;3.12;92.59;100189.98;1677547;83;21250;-64
2021/01/04 01:22:36;;;;;;;60.35;29.70;;;;;;;3.13;92.85;100191.66;1675269;83;21657;-63
2021/01/04 01:25:15;;;;;;;61.80;29.00;;;;;;;3.16;92.66;100194.05;1701973;82;21232;-65
2021/01/04 01:31:29;;;;;;;61.88;28.25;;;;;;;3.11;92.92;100188.33;1702145;83;21206;-64
2021/01/04 01:34:12;;;;;;;56.70;25.10;;;;;;;3.19;92.67;100184.70;1703723;83;21638;-66
2021/01/04 01:37:06;;;;;;;59.83;28.10;;;;;;;3.22;92.57;100188.41;1700303;83;21253;-65
2021/01/04 01:39:54;;;;;;;61.50;28.27;;;;;;;3.14;92.69;100193.34;1705539;83;21214;-66
2021/01/04 01:43:08;;;;;;;58.08;29.00;;;;;;;3.19;92.67;100190.41;1701378;83;21628;-64
2021/01/04 01:45:48;;;;;;;63.60;29.00;;;;;;;3.19;92.78;100193.84;1703806;82;21791;-65
2021/01/04 01:49:06;;;;;;;57.10;28.92;;;;;;;3.16;92.84;100185.40;1707263;82;21240;-65
2021/01/04 01:52:01;;;;;;;58.52;27.45;;;;;;;3.12;93.03;100182.15;1708203;82;21221;-66
2021/01/04 01:55:01;;;;;;;64.85;28.47;;;;;;;3.10;93.18;100189.27;1668991;82;21473;-66
2021/01/04 01:57:55;;;;;;;57.98;28.27;;;;;;;3.08;93.25;100192.45;1714185;82;21248;-66
2021/01/04 02:00:28;;;;;;;58.15;27.27;;;;;;;3.07;93.23;100180.34;1723736;82;22105;-64
2021/01/04 02:03:03;;;;;;;57.10;27.93;;;;;;;3.12;93.22;100181.33;1716355;82;21176;-65
2021/01/04 02:05:55;;;;;;;57.30;28.65;;;;;;;3.13;93.19;100183.83;1678834;82;21127;-65
2021/01/04 02:08:25;;;;;;;61.02;28.02;;;;;;;3.12;93.20;100184.76;1711119;82;21166;-64
2021/01/04 02:10:56;;;;;;;54.13;25.97;;;;;;;3.13;93.21;100181.22;1720008;82;21614;-64
2021/01/04 02:13:30;;;;;;;53.83;26.75;;;;;;;3.15;93.19;100179.33;1709908;82;22008;-64
2021/01/04 02:16:04;;;;;;;53.10;27.32;;;;;;;3.16;93.19;100173.17;1681825;82;21241;-64
2021/01/04 02:18:51;;;;;;;52.48;27.35;;;;;;;3.13;93.44;100173.39;1710515;82;21183;-65
2021/01/04 02:21:42;;;;;;;64.15;28.77;;;;;;;3.19;93.49;100170.35;1701737;82;21687;-65
2021/01/04 02:24:11;;;;;;;54.10;29.35;;;;;;;3.40;92.38;100171.07;1753916;80;21110;-65
2021/01/04 02:26:40;;;;;;;57.27;27.87;;;;;;;3.52;92.01;100166.28;1747934;80;21216;-66
2021/01/04 02:29:09;;;;;;;56.10;28.52;;;;;;;3.57;91.55;100161.58;1753375;80;21187;-66
2021/01/04 02:31:37;;;;;;;56.73;28.62;;;;;;;3.51;91.45;100160.71;1721947;82;21204;-65
2021/01/04 02:34:06;;;;;;;57.23;27.45;;;;;;;3.47;91.70;100163.17;1751536;80;21140;-66
2021/01/04 02:36:35;;;;;;;55.38;26.50;;;;;;;3.38;92.08;100162.52;1653252;82;21594;-66
2021/01/04 02:39:12;;;;;;;49.18;27.02;;;;;;;3.37;92.17;100165.61;1710868;82;22118;-66
2021/01/04 02:41:45;;;;;;;;;;;;;;;3.33;92.51;100159.42;1725907;82;21198;-66
2021/01/04 02:44:10;;;;;;;57.27;26.35;;;;;;;3.31;92.49;100167.81;1715795;82;20675;-66
2021/01/04 02:46:37;;;;;;;55.85;28.07;;;;;;;3.23;92.80;100172.27;1716448;81;28144;-65
2021/01/04 02:49:08;;;;;;;56.77;28.17;;;;;;;3.20;93.19;100173.34;1716238;82;21228;-66
2021/01/04 02:51:37;;;;;;;56.55;27.37;;;;;;;3.19;93.29;100167.74;1711692;82;21236;-65
2021/01/04 02:54:26;;;;;;;54.13;27.60;;;;;;;3.30;93.07;100174.81;1713224;82;21709;-66
2021/01/04 02:57:12;;;;;;;58.98;28.38;;;;;;;3.36;92.87;100169.16;1716504;81;21188;-66
2021/01/04 02:59:51;;;;;;;54.85;29.25;;;;;;;3.41;92.70;100166.22;1724845;81;21213;-66
2021/01/04 03:02:32;;;;;;;66.60;29.15;;;;;;;3.44;92.39;100176.45;1731447;82;21193;-64
2021/01/04 03:04:58;;;;;;;60.80;28.45;;;;;;;3.40;92.62;100168.45;1747334;80;22053;-65
2021/01/04 03:07:30;;;;;;;60.58;30.45;;;;;;;3.31;92.79;100156.06;1777126;79;21208;-66
2021/01/04 03:09:57;;;;;;;63.15;30.48;;;;;;;3.29;92.98;100160.56;1772495;79;21550;-65
2021/01/04 03:12:29;;;;;;;64.53;29.20;;;;;;;3.30;93.17;100155.72;1774461;79;21216;-65
2021/01/04 03:15:15;;;;;;;55.55;29.25;;;;;;;3.30;93.20;100153.11;1776589;79;21140;-65
2021/01/04 03:18:17;;;;;;;67.05;29.05;;;;;;;3.33;93.09;100156.33;1773460;79;21904;-66
2021/01/04 03:20:42;;;;;;;59.40;29.18;;;;;;;3.36;92.92;100156.11;1775435;79;21200;-66
2021/01/04 03:23:08;;;;;;;60.80;27.73;;;;;;;3.44;92.76;100166.00;1772876;79;22737;-65
2021/01/04 03:25:49;;;;;;;63.75;29.45;;;;;;;3.46;92.64;100166.72;1770821;79;28492;-65
2021/01/04 03:28:26;;;;;;;60.08;30.27;;;;;;;3.40;92.95;100169.77;1773348;79;21200;-65
2021/01/04 03:30:52;;;;;;;;;;;;;;;3.36;92.93;100170.95;1778532;78;22602;-65
2021/01/04 03:33:18;;;;;;;60.50;27.48;;;;;;;3.29;93.23;100164.48;1773952;79;20514;-64
2021/01/04 03:35:44;;;;;;;61.73;27.37;;;;;;;3.29;93.47;100165.79;1773864;79;23835;-64
2021/01/04 03:38:11;;;;;;;56.40;29.37;;;;;;;3.35;93.27;100164.88;1772777;79;28084;-65
2021/01/04 03:40:36;;;;;;;66.35;28.35;;;;;;;3.36;93.52;100163.12;1774670;79;21214;-64
2021/01/04 03:43:02;;;;;;;60.60;31.23;;;;;;;3.38;93.66;100167.74;1776093;78;21336;-64
2021/01/04 03:45:28;;;;;;;62.70;29.20;;;;;;;3.39;93.58;100162.90;1787403;78;25555;-64
2021/01/04 03:47:54;;;;;;;63.87;28.53;;;;;;;3.57;92.74;100171.17;1791337;78;24085;-65
2021/01/04 03:50:20;;;;;;;63.95;30.50;;;;;;;3.64;92.30;100167.18;1790212;78;29480;-65
2021/01/04 03:52:45;;;;;;;63.87;29.77;;;;;;;3.62;92.25;100167.77;1788975;78;21184;-65
2021/01/04 03:55:14;;;;;;;60.17;28.32;;;;;;;3.57;92.18;100175.08;1793788;78;21240;-64
2021/01/04 03:57:40;;;;;;;54.85;28.80;;;;;;;3.64;92.11;100174.19;1792319;78;21625;-65
2021/01/04 04:00:07;;;;;;;53.97;28.00;;;;;;;3.66;92.12;100177.52;1793804;78;23760;-64
2021/01/04 04:02:33;;;;;;;63.28;27.95;;;;;;;3.64;92.21;100175.50;1794656;78;21198;-66
2021/01/04 04:04:59;;;;;;;52.73;27.32;;;;;;;3.62;92.01;100176.06;1791335;78;27290;-63
2021/01/04 04:07:25;;;;;;;61.45;27.73;;;;;;;3.62;92.17;100176.06;1790330;78;21872;-64
2021/01/04 04:09:50;;;;;;;51.63;27.62;;;;;;;3.65;92.08;100181.91;1789192;78;26779;-65
2021/01/04 04:12:16;;;;;;;54.80;27.30;;;;;;;3.58;92.20;100178.89;1789753;78;25604;-65
2021/01/04 04:14:48;;;;;;;53.65;27.27;;;;;;;3.52;92.52;100187.64;1791649;78;28197;-65
2021/01/04 04:17:16;;;;;;;53.63;26.65;;;;;;;3.57;92.57;100186.38;1793573;78;21164;-65
2021/01/04 04:19:49;;;;;;;56.95;27.50;;;;;;;3.48;92.84;100185.73;1794307;78;21645;-65
2021/01/04 04:22:16;;;;;;;51.58;25.90;;;;;;;3.40;93.26;100182.81;1791176;78;21206;-65
2021/01/04 04:24:43;;;;;;;55.28;26.87;;;;;;;3.49;93.00;100183.95;1794866;78;21214;-65
2021/01/04 04:27:09;;;;;;;61.37;26.23;;;;;;;3.45;93.00;100187.26;1791765;78;21367;-65
2021/01/04 04:29:37;;;;;;;47.33;26.68;;;;;;;3.44;93.23;100192.11;1790828;78;21203;-66
2021/01/04 04:32:03;;;;;;;46.88;24.10;;;;;;;3.52;93.03;100189.77;1788805;78;21896;-65
2021/01/04 04:34:29;;;;;;;48.02;24.43;;;;;;;3.58;92.87;100194.56;1792616;78;21176;-65
2021/01/04 04:36:55;;;;;;;47.87;25.40;;;;;;;3.64;92.69;100192.47;1792200;78;23722;-65
2021/01/04 04:39:20;;;;;;;52.10;24.67;;;;;;;3.56;92.65;100191.23;1792410;78;28303;-65
2021/01/04 04:41:47;;;;;;;44.85;24.67;;;;;;;3.57;92.71;100190.30;1792008;78;26659;-66
2021/01/04 04:44:27;;;;;;;49.45;24.82;;;;;;;3.58;92.71;100189.33;1790566;78;22066;-65
2021/01/04 04:47:11;;;;;;;49.08;23.70;;;;;;;3.64;92.57;100192.47;1788049;78;21188;-65
2021/01/04 04:49:53;;;;;;;47.67;24.72;;;;;;;3.58;92.56;100191.95;1788203;78;21164;-66
2021/01/04 04:52:47;;;;;;;42.25;23.92;;;;;;;3.58;92.56;100186.72;1788302;78;21124;-65
2021/01/04 04:55:24;;;;;;;47.00;23.38;;;;;;;3.54;92.92;100193.13;1784734;78;21455;-65
2021/01/04 04:58:12;;;;;;;47.78;22.62;;;;;;;3.56;92.99;100191.23;1787954;78;21200;-65
2021/01/04 05:01:32;;;;;;;38.13;22.02;;;;;;;3.50;93.20;100195.59;1785162;78;21251;-64
2021/01/04 05:04:42;;;;;;;48.98;23.90;;;;;;;3.53;93.35;100199.28;1788853;78;21191;-64
2021/01/04 05:07:30;;;;;;;42.60;22.82;;;;;;;3.63;93.17;100196.02;1785626;78;21684;-64
2021/01/04 05:10:06;;;;;;;46.20;22.85;;;;;;;3.81;92.51;100200.36;1791704;78;21180;-65
2021/01/04 05:12:44;;;;;;;47.45;23.73;;;;;;;3.84;92.25;100207.53;1787016;78;21613;-63
2021/01/04 05:15:24;;;;;;;43.80;22.67;;;;;;;3.83;92.04;100207.64;1786105;78;21171;-64
2021/01/04 05:18:10;;;;;;;43.02;23.45;;;;;;;3.82;91.97;100202.86;1788216;78;21250;-64
2021/01/04 05:21:01;;;;;;;44.60;23.05;;;;;;;3.71;92.34;100205.42;1787875;78;21180;-64
2021/01/04 05:24:15;;;;;;;40.45;22.42;;;;;;;3.74;92.40;100214.34;1785118;78;21152;-65
2021/01/04 05:27:01;;;;;;;44.03;23.92;;;;;;;3.65;92.71;100211.09;1787932;78;21342;-65
2021/01/04 05:30:04;;;;;;;45.30;23.32;;;;;;;3.66;92.84;100214.08;1739292;80;21155;-64
2021/01/04 05:32:51;;;;;;;45.85;24.65;;;;;;;3.64;93.08;100214.67;1707616;81;21219;-65
2021/01/04 05:35:17;;;;;;;51.98;24.63;;;;;;;3.59;93.31;100209.29;1604575;88;21277;-64
2021/01/04 05:38:10;;;;;;;41.10;23.85;;;;;;;3.57;93.29;100213.80;1683480;82;26696;-66
2021/01/04 05:40:57;;;;;;;47.90;23.95;;;;;;;3.58;93.38;100218.06;1715434;82;21299;-65
2021/01/04 05:44:10;;;;;;;47.58;23.15;;;;;;;3.59;93.40;100214.52;1705926;82;21247;-65
2021/01/04 05:46:51;;;;;;;39.60;23.83;;;;;;;3.69;93.12;100216.47;1729953;81;21639;-65
2021/01/04 05:49:34;;;;;;;46.88;23.05;;;;;;;3.76;92.86;100225.54;1724908;82;21313;-65
2021/01/04 05:51:59;;;;;;;46.83;24.10;;;;;;;3.78;92.73;100226.25;1729785;81;21223;-64
2021/01/04 05:54:47;;;;;;;46.00;25.65;;;;;;;3.75;92.76;100223.86;1727065;82;21273;-65
2021/01/04 05:57:15;;;;;;;46.55;24.10;;;;;;;3.68;93.11;100229.16;1728665;82;21565;-65
2021/01/04 05:59:56;;;;;;;48.87;25.23;;;;;;;3.66;93.20;100224.52;1719712;82;21685;-64
2021/01/04 06:02:28;;;;;;;46.00;23.52;;;;;;;3.70;93.18;100225.98;1726541;81;21636;-65
2021/01/04 06:05:06;;;;;;;46.85;25.17;;;;;;;3.69;93.07;100225.61;1720414;82;21219;-64
2021/01/04 06:07:38;;;;;;;48.42;26.07;;;;;;;3.67;93.18;100227.50;1719242;82;21195;-65
2021/01/04 06:10:07;;;;;;;49.88;26.33;;;;;;;3.64;93.43;100222.50;1722558;82;21601;-65
2021/01/04 06:12:40;;;;;;;50.73;25.75;;;;;;;3.67;93.48;100227.50;1725346;81;21253;-66
2021/01/04 06:15:07;;;;;;;47.90;27.45;;;;;;;3.58;93.63;100224.59;1730292;81;21202;-63
2021/01/04 06:17:39;;;;;;;48.98;26.30;;;;;;;3.56;93.83;100233.01;1724841;82;21787;-65
2021/01/04 06:20:23;;;;;;;54.25;28.20;;;;;;;3.55;93.94;100233.94;1725794;82;21415;-64
2021/01/04 06:22:49;;;;;;;53.73;27.52;;;;;;;3.52;94.13;100226.33;1724369;82;21223;-64
2021/01/04 06:25:15;;;;;;;51.40;28.00;;;;;;;3.50;94.37;100232.63;1722432;82;21829;-64
2021/01/04 06:27:46;;;;;;;54.73;26.93;;;;;;;3.54;94.61;100227.07;1722773;82;21233;-64
2021/01/04 06:30:34;;;;;;;50.70;27.80;;;;;;;3.67;94.00;100226.20;1726266;82;21206;-64
2021/01/04 06:33:13;;;;;;;55.48;28.15;;;;;;;3.79;93.54;100229.20;1725738;81;21445;-65
2021/01/04 06:35:39;;;;;;;54.45;28.50;;;;;;;4.07;92.11;100231.13;1718776;81;21274;-65
2021/01/04 06:38:27;;;;;;;59.37;28.27;;;;;;;4.01;91.87;100234.19;1719869;82;23697;-65
2021/01/04 06:40:53;;;;;;;47.05;26.48;;;;;;;4.00;91.99;100237.28;1731085;81;21189;-64
2021/01/04 06:43:28;;;;;;;47.73;26.70;;;;;;;3.95;92.05;100236.31;1722832;82;21219;-64
2021/01/04 06:46:25;;;;;;;48.95;26.85;;;;;;;3.89;92.21;100241.98;1729869;82;22102;-64
2021/01/04 06:49:12;;;;;;;52.33;27.62;;;;;;;3.86;92.47;100238.28;1720335;82;21210;-64
2021/01/04 06:52:07;;;;;;;53.40;27.82;;;;;;;3.83;92.52;100237.20;1718302;82;21268;-65
2021/01/04 06:55:07;;;;;;;49.75;27.35;;;;;;;3.82;92.70;100235.52;1729942;81;21207;-65
2021/01/04 06:58:04;;;;;;;57.45;28.60;;;;;;;3.79;92.68;100233.13;1689063;83;21201;-65
2021/01/04 07:00:36;;;;;;;;;;;;;;;3.67;93.15;100228.33;1718728;81;21239;-65
2021/01/04 07:03:30;;;;;;;50.67;27.52;;;;;;;3.59;93.84;100229.36;1683758;83;20541;-65
2021/01/04 07:06:07;;;;;;;54.77;27.45;;;;;;;3.72;93.40;100230.61;1699204;82;21221;-65
2021/01/04 07:09:11;;;;;;;52.70;26.62;;;;;;;3.74;93.08;100227.41;1713088;81;21215;-65
2021/01/04 07:11:58;;;;;;;51.73;27.90;;;;;;;3.73;93.20;100225.77;1707523;81;21609;-66
2021/01/04 07:15:02;;;;;;;47.65;27.60;;;;;;;3.73;93.08;100219.23;1714840;81;21387;-65
2021/01/04 07:17:37;;;;;;;56.95;28.70;;;;;;;3.75;93.23;100226.47;1718044;81;21143;-65
2021/01/04 07:20:14;;;;;;;56.75;29.48;;;;;;;3.72;93.38;100228.00;1717039;81;21619;-65
2021/01/04 07:22:49;;;;;;;;;;;;;;;3.78;93.17;100224.95;1721026;82;21214;-65
2021/01/04 07:25:54;;;;;;;53.85;29.15;;;;;;;3.77;93.21;100232.41;1688481;83;20309;-65
2021/01/04 07:28:37;;;;;;;56.23;29.37;;;;;;;3.71;93.28;100231.55;1665022;82;21241;-66
2021/01/04 07:31:11;;;;;;;53.68;27.98;;;;;;;3.74;93.49;100232.18;1701086;82;21234;-65
2021/01/04 07:33:57;;;;;;;51.92;29.52;;;;;;;3.74;93.36;100230.02;1695482;82;21233;-65
2021/01/04 07:36:47;;;;;;;56.27;27.90;;;;;;;3.77;93.19;100229.80;1705225;82;21258;-66
2021/01/04 07:39:44;;;;;;;49.53;29.67;;;;;;;3.83;93.33;100233.28;1702716;82;21560;-65
2021/01/04 07:42:46;;;;;;;51.92;28.83;;;;;;;3.76;93.18;100234.68;1699516;82;21273;-65
2021/01/04 07:45:46;;;;;;;52.58;28.42;;;;;;;3.75;93.30;100236.44;1700456;82;21570;-65
2021/01/04 07:48:54;;;;;;;52.17;27.67;;;;;;;3.84;93.12;100241.48;1698839;82;21611;-65
2021/01/04 07:51:42;;;;;;;57.27;29.57;;;;;;;3.70;93.70;100235.95;1700134;82;21228;-66
2021/01/04 07:54:34;;;;;;;54.63;32.50;;;;;;;3.82;93.52;100225.07;1701660;82;22380;-65
2021/01/04 07:57:28;;;;;;;60.65;30.17;;;;;;;4.08;92.28;100229.70;1726444;81;21557;-65
2021/01/04 08:00:25;;;;;;;62.30;33.00;;;;;;;4.10;92.11;100232.20;1731517;81;21130;-64
2021/01/04 08:03:24;;;;;;;53.85;30.97;;;;;;;4.04;92.21;100236.58;1725867;81;21238;-65
2021/01/04 08:06:13;;;;;;;59.65;31.05;;;;;;;4.05;92.10;100244.78;1728730;81;21195;-65
2021/01/04 08:09:00;;;;;;;61.33;32.00;;;;;;;3.99;92.25;100251.28;1729988;81;21188;-66
2021/01/04 08:11:50;;;;;;;53.87;31.45;;;;;;;3.99;92.43;100256.98;1731998;81;22367;-65
2021/01/04 08:14:39;;;;;;;55.20;31.00;;;;;;;4.06;92.35;100255.61;1727769;81;21254;-64
2021/01/04 08:17:14;;;;;;;52.80;29.90;;;;;;;4.05;92.09;100253.45;1726690;81;21175;-64
2021/01/04 08:19:40;;;;;;;55.95;32.30;;;;;;;4.07;92.14;100257.26;1724711;81;21203;-64
2021/01/04 08:22:14;;;;;;;55.78;31.65;;;;;;;4.00;92.27;100265.20;1729149;81;26783;-64
2021/01/04 08:24:44;;;;;;;56.73;32.88;;;;;;;3.99;92.59;100264.83;1733810;81;21176;-64
2021/01/04 08:27:40;;;;;;;60.00;30.85;;;;;;;3.93;92.69;100272.17;1730828;81;21762;-64
2021/01/04 08:30:19;;;;;;;54.15;31.10;;;;;;;3.98;92.63;100271.84;1681790;81;21179;-65
2021/01/04 08:33:02;;;;;;;52.98;31.12;;;;;;;4.05;92.54;100275.66;1735814;81;21201;-66
2021/01/04 08:35:37;;;;;;;61.15;31.52;;;;;;;4.00;92.67;100280.87;1624877;83;59583;-64
2021/01/04 08:38:31;;;;;;;54.70;31.70;;;;;;;4.12;92.57;100279.98;1630751;87;21225;-65
2021/01/04 08:41:24;;;;;;;59.48;31.48;;;;;;;4.16;92.02;100281.42;1669298;84;21622;-65
2021/01/04 08:43:56;;;;;;;54.38;29.70;;;;;;;4.18;92.01;100283.47;1675860;84;21232;-64
2021/01/04 08:46:27;;;;;;;57.78;31.62;;;;;;;4.27;91.77;100288.48;1673165;84;21237;-64
2021/01/04 08:48:56;;;;;;;55.75;31.62;;;;;;;4.33;91.67;100287.20;1672365;84;21285;-64
2021/01/04 08:51:30;;;;;;;61.92;31.35;;;;;;;4.35;91.53;100290.53;1701173;80;36585;-64
2021/01/04 08:54:13;;;;;;;58.05;32.50;;;;;;;4.37;91.32;100292.09;1718003;82;22264;-64
2021/01/04 08:56:42;;;;;;;60.70;34.27;;;;;;;4.44;91.38;100288.55;1708481;80;21189;-64
2021/01/04 08:59:21;;;;;;;55.23;31.90;;;;;;;4.48;91.35;100295.23;1689252;83;21203;-66
2021/01/04 09:01:57;;;;;;;56.95;32.23;;;;;;;4.55;91.07;100293.81;1692181;83;21209;-65
2021/01/04 09:04:33;;;;;;;58.45;34.55;;;;;;;4.54;90.76;100288.23;1688726;83;21217;-65
2021/01/04 09:07:18;;;;;;;55.78;32.88;;;;;;;4.59;90.61;100296.56;1659712;85;21602;-65
2021/01/04 09:09:52;;;;;;;55.55;31.40;;;;;;;4.66;90.49;100292.56;1691126;83;21643;-65
2021/01/04 09:12:36;;;;;;;63.83;35.63;;;;;;;4.73;90.23;100296.03;1664071;85;37905;-65
2021/01/04 09:15:08;;;;;;;55.90;30.60;;;;;;;4.84;89.66;100290.81;1671442;84;21217;-65
2021/01/04 09:17:46;;;;;;;55.95;32.03;;;;;;;4.93;89.43;100292.73;1671900;84;21345;-64
2021/01/04 09:20:35;;;;;;;52.83;30.92;;;;;;;4.96;89.22;100288.58;1676537;84;21631;-65
2021/01/04 09:23:32;;;;;;;50.00;28.10;;;;;;;5.02;88.95;100286.80;1683958;84;21177;-65
2021/01/04 09:26:09;;;;;;;44.25;27.80;;;;;;;5.01;88.75;100294.28;1675083;84;21197;-64
2021/01/04 09:28:49;;;;;;;50.10;29.45;;;;;;;5.01;88.50;100292.98;1676675;84;21217;-64
2021/01/04 09:31:17;;;;;;;49.27;30.37;;;;;;;5.03;88.29;100296.78;1681205;84;22159;-65
2021/01/04 09:33:49;;;;;;;48.17;28.92;;;;;;;5.04;88.45;100290.12;1679616;84;21265;-65
2021/01/04 09:36:16;;;;;;;51.25;29.00;;;;;;;5.08;88.45;100291.20;1681975;84;21428;-67
2021/01/04 09:38:41;;;;;;;52.15;28.85;;;;;;;4.95;88.44;100288.20;1672479;84;21639;-65
2021/01/04 09:41:09;;;;;;;50.10;29.07;;;;;;;4.96;88.50;100284.66;1676188;84;27348;-65
2021/01/04 09:43:36;;;;;;;;;;;;;;;4.95;88.64;100288.20;1675024;84;21260;-64
2021/01/04 09:46:21;;;;;;;48.98;28.32;;;;;;;4.93;88.47;100286.20;1676186;84;20311;-67
2021/01/04 09:48:55;;;;;;;51.02;29.57;;;;;;;4.91;88.73;100292.48;1676397;84;21214;-66
2021/01/04 09:51:42;;;;;;;48.65;28.52;;;;;;;4.92;88.85;100288.44;1674657;84;21765;-64
2021/01/04 09:54:21;;;;;;;48.40;27.77;;;;;;;4.87;88.73;100294.51;1672951;84;21261;-65
2021/01/04 09:56:48;;;;;;;51.83;30.10;;;;;;;4.89;88.72;100290.47;1671652;84;23061;-65
2021/01/04 09:59:23;;;;;;;57.62;29.72;;;;;;;4.87;88.91;100290.58;1630554;84;21185;-65
2021/01/04 10:02:01;;;;;;;51.20;29.02;;;;;;;4.95;88.90;100296.06;1672724;84;21284;-63
2021/01/04 10:04:33;;;;;;;53.00;30.95;;;;;;;4.98;88.46;100295.00;1645227;84;21283;-64
2021/01/04 10:06:59;;;;;;;54.60;31.05;;;;;;;5.00;88.34;100294.41;1670980;84;21177;-63
2021/01/04 10:09:29;;;;;;;52.70;30.80;;;;;;;5.03;88.38;100299.41;1666403;84;21236;-65
2021/01/04 10:11:57;;;;;;;54.18;30.52;;;;;;;5.08;88.22;100295.13;1669172;84;21230;-64
2021/01/04 10:14:23;;;;;;;54.05;30.72;;;;;;;5.00;88.08;100291.33;1675612;84;21224;-64
2021/01/04 10:16:51;;;;;;;56.18;31.73;;;;;;;4.90;88.35;100282.50;1664968;84;28389;-64
2021/01/04 10:19:25;;;;;;;59.67;32.55;;;;;;;4.83;88.85;100286.52;1673273;84;21232;-65
2021/01/04 10:22:00;;;;;;;58.15;33.35;;;;;;;4.72;89.33;100286.50;1671745;84;21722;-64
2021/01/04 10:24:34;;;;;;;54.85;32.10;;;;;;;4.76;89.44;100282.72;1662358;84;21260;-64
2021/01/04 10:27:02;;;;;;;55.70;32.17;;;;;;;4.87;89.27;100281.42;1667836;84;21219;-64
2021/01/04 10:29:28;;;;;;;53.90;30.77;;;;;;;4.84;89.27;100281.17;1668676;84;21189;-64
2021/01/04 10:32:08;;;;;;;57.65;32.78;;;;;;;4.77;89.26;100279.13;1667054;84;26874;-63
2021/01/04 10:34:40;;;;;;;57.45;33.50;;;;;;;4.76;89.48;100273.08;1668378;84;21226;-63
2021/01/04 10:37:27;;;;;;;57.53;32.58;;;;;;;4.74;89.75;100276.75;1664539;84;21728;-64
2021/01/04 10:40:07;;;;;;;58.42;33.58;;;;;;;4.78;89.75;100280.81;1672525;84;21250;-63
2021/01/04 10:42:32;;;;;;;58.02;32.65;;;;;;;4.83;89.74;100276.05;1670271;84;21209;-64
2021/01/04 10:45:10;;;;;;;60.95;34.38;;;;;;;4.87;89.36;100272.27;1666699;84;26759;-65
2021/01/04 10:47:54;;;;;;;57.13;32.30;;;;;;;4.77;89.57;100269.97;1666903;84;21234;-65
2021/01/04 10:50:35;;;;;;;57.15;33.78;;;;;;;4.68;89.87;100265.80;1696094;82;21650;-64
2021/01/04 10:53:14;;;;;;;56.85;33.53;;;;;;;4.76;89.88;100270.95;1666062;84;21219;-66
2021/01/04 10:55:54;;;;;;;60.95;33.98;;;;;;;4.75;89.96;100274.50;1671142;83;21173;-67
2021/01/04 10:58:27;;;;;;;57.65;34.13;;;;;;;4.81;89.92;100272.24;1653148;84;21266;-66
2021/01/04 11:01:01;;;;;;;61.30;35.52;;;;;;;4.77;89.89;100268.66;1675519;84;22024;-67
2021/01/04 11:03:27;;;;;;;60.50;34.73;;;;;;;4.80;89.82;100271.05;1669363;84;21254;-67
2021/01/04 11:05:53;;;;;;;63.02;35.63;;;;;;;4.72;90.00;100268.19;1670057;84;24038;-65
2021/01/04 11:08:31;;;;;;;60.95;35.00;;;;;;;4.66;90.29;100266.41;1677487;84;28784;-66
2021/01/04 11:11:03;;;;;;;61.37;35.63;;;;;;;4.63;90.62;100264.02;1677019;84;21584;-65
2021/01/04 11:13:32;;;;;;;58.90;34.73;;;;;;;4.63;90.65;100267.94;1678062;84;21246;-66
2021/01/04 11:16:16;;;;;;;60.73;35.08;;;;;;;4.67;90.64;100269.36;1676126;84;21248;-65
2021/01/04 11:18:52;;;;;;;62.05;35.55;;;;;;;4.70;90.48;100268.30;1673741;84;21185;-65
2021/01/04 11:21:19;;;;;;;69.77;37.42;;;;;;;4.67;90.68;100266.74;1672610;84;21216;-65
2021/01/04 11:23:45;;;;;;;;;;;;;;;4.71;90.78;100263.89;1674395;84;21215;-65
2021/01/04 11:26:11;;;;;;;61.28;36.38;;;;;;;4.66;90.90;100257.25;1678846;84;21304;-65
2021/01/04 11:28:36;;;;;;;66.30;38.73;;;;;;;4.64;90.94;100253.07;1677530;84;27107;-69
2021/01/04 11:31:03;;;;;;;63.47;35.90;;;;;;;4.67;91.04;100245.81;1683311;84;25797;-66
2021/01/04 11:33:29;;;;;;;65.15;34.92;;;;;;;4.79;90.95;100239.32;1676045;84;21199;-64
2021/01/04 11:35:55;;;;;;;62.43;36.08;;;;;;;4.80;90.70;100245.74;1675155;84;27387;-64
2021/01/04 11:38:21;;;;;;;64.92;37.17;;;;;;;4.86;90.56;100236.58;1675616;84;22809;-65
2021/01/04 11:40:46;;;;;;;66.85;38.50;;;;;;;4.81;90.79;100246.56;1675102;84;27235;-67
2021/01/04 11:43:13;;;;;;;66.87;38.20;;;;;;;4.85;90.80;100238.85;1661878;84;23758;-68
2021/01/04 11:45:39;;;;;;;62.45;37.45;;;;;;;4.88;90.60;100241.69;1676299;84;21198;-66
2021/01/04 11:48:06;;;;;;;66.53;38.20;;;;;;;4.91;90.49;100235.77;1686533;84;26785;-65
2021/01/04 11:50:32;;;;;;;67.37;39.25;;;;;;;4.93;90.24;100224.70;1674835;84;21645;-65
2021/01/04 11:52:58;;;;;;;71.80;39.92;;;;;;;4.88;90.52;100216.37;1675536;84;28027;-66
2021/01/04 11:55:24;;;;;;;68.55;38.95;;;;;;;5.05;90.46;100215.08;1679512;84;21222;-68
2021/01/04 11:57:50;;;;;;;70.87;40.25;;;;;;;5.21;89.66;100218.64;1677257;83;28295;-67
2021/01/04 12:00:17;;;;;;;72.10;40.58;;;;;;;5.25;89.39;100218.77;1678260;84;21198;-67
2021/01/04 12:02:43;;;;;;;69.75;40.83;;;;;;;5.33;89.07;100211.13;1678442;84;21670;-67
2021/01/04 12:05:11;;;;;;;72.35;41.68;;;;;;;5.29;89.02;100212.31;1674637;84;27583;-67
2021/01/04 12:07:37;;;;;;;73.95;41.08;;;;;;;5.20;89.36;100214.34;1668234;84;21224;-67
2021/01/04 12:10:04;;;;;;;65.45;38.88;;;;;;;5.24;89.44;100209.23;1674905;84;28824;-67
2021/01/04 12:12:30;;;;;;;66.37;39.58;;;;;;;5.25;89.51;100205.67;1671703;84;21023;-67
2021/01/04 12:14:56;;;;;;;70.65;39.85;;;;;;;5.26;89.45;100204.70;1671080;84;22101;-67